createdAt,value
2022-10-12T00:02:04.414Z,10.20
2022-10-12T00:05:02.022Z,10.80
2022-10-12T00:07:59.056Z,11.80
2022-10-12T00:10:56.094Z,12.60
2022-10-12T00:13:53.044Z,13.00
2022-10-12T00:16:49.996Z,9.60
2022-10-12T00:19:47.002Z,12.60
2022-10-12T00:22:44.140Z,10.00
2022-10-12T00:25:41.491Z,7.20
2022-10-12T00:28:39.000Z,11.20
2022-10-12T00:31:36.346Z,10.00
2022-10-12T00:34:33.280Z,9.00
2022-10-12T00:37:29.842Z,9.00
2022-10-12T00:40:27.163Z,10.00
2022-10-12T00:43:37.965Z,10.00
2022-10-12T00:46:45.022Z,6.80
2022-10-12T00:49:42.110Z,9.00
2022-10-12T00:52:42.801Z,9.00
2022-10-12T00:55:43.677Z,8.60
2022-10-12T00:58:41.145Z,8.20
2022-10-12T01:01:38.081Z,1.20
2022-10-12T01:04:34.897Z,9.40
2022-10-12T01:07:32.193Z,7.20
2022-10-12T01:10:29.244Z,6.00
2022-10-12T01:13:26.266Z,5.40
2022-10-12T01:16:29.797Z,7.60
2022-10-12T01:19:45.267Z,6.00
2022-10-12T01:22:45.872Z,6.00
2022-10-12T01:25:52.228Z,5.20
2022-10-12T01:28:52.037Z,5.00
2022-10-12T01:32:06.818Z,6.80
2022-10-12T01:35:16.705Z,7.80
2022-10-12T01:38:34.424Z,4.80
2022-10-12T01:41:54.129Z,6.00
2022-10-12T01:44:51.197Z,5.40
2022-10-12T01:47:52.641Z,7.20
2022-10-12T01:50:51.425Z,6.00
2022-10-12T01:54:03.739Z,5.60
2022-10-12T01:57:06.461Z,5.80
2022-10-12T02:00:07.837Z,5.20
2022-10-12T02:03:20.873Z,5.00
2022-10-12T02:06:19.792Z,5.60
2022-10-12T02:09:26.352Z,4.00
2022-10-12T02:12:23.897Z,5.40
2022-10-12T02:15:21.236Z,8.20
2022-10-12T02:18:18.715Z,5.00
2022-10-12T02:21:18.094Z,4.60
2022-10-12T02:24:15.283Z,5.00
2022-10-12T02:27:12.517Z,6.40
2022-10-12T02:30:09.634Z,10.40
2022-10-12T02:33:14.761Z,8.20
2022-10-12T02:36:14.013Z,10.00
2022-10-12T02:39:17.097Z,10.00
2022-10-12T02:42:17.915Z,7.20
2022-10-12T02:45:15.410Z,8.00
2022-10-12T02:48:13.869Z,10.80
2022-10-12T02:51:11.490Z,10.40
2022-10-12T02:54:08.066Z,6.00
2022-10-12T02:57:05.081Z,7.60
2022-10-12T03:00:02.418Z,6.00
2022-10-12T03:02:59.421Z,8.20
2022-10-12T03:05:56.578Z,9.00
2022-10-12T03:08:56.060Z,8.20
2022-10-12T03:11:53.091Z,9.00
2022-10-12T03:14:50.236Z,9.20
2022-10-12T03:17:47.182Z,8.20
2022-10-12T03:20:48.607Z,7.60
2022-10-12T03:23:46.070Z,8.00
2022-10-12T03:26:43.320Z,6.40
2022-10-12T03:29:40.229Z,6.80
2022-10-12T03:32:38.097Z,9.00
2022-10-12T03:35:35.459Z,8.00
2022-10-12T03:38:31.955Z,6.80
2022-10-12T03:41:29.494Z,11.80
2022-10-12T03:44:26.580Z,8.20
2022-10-12T03:47:23.116Z,9.80
2022-10-12T03:50:20.110Z,7.60
2022-10-12T03:53:17.343Z,9.00
2022-10-12T03:56:14.492Z,8.60
2022-10-12T03:59:11.419Z,8.00
2022-10-12T04:02:08.164Z,8.80
2022-10-12T04:05:05.649Z,8.60
2022-10-12T04:08:02.021Z,6.40
2022-10-12T04:10:59.432Z,5.60
2022-10-12T04:13:56.194Z,8.00
2022-10-12T04:16:54.421Z,8.80
2022-10-12T04:19:51.201Z,8.80
2022-10-12T04:22:48.037Z,8.20
2022-10-12T04:25:45.519Z,9.00
2022-10-12T04:28:42.427Z,8.20
2022-10-12T04:31:39.141Z,8.60
2022-10-12T04:34:38.795Z,8.00
2022-10-12T04:37:36.407Z,4.80
2022-10-12T04:40:33.181Z,8.00
2022-10-12T04:43:30.470Z,8.00
2022-10-12T04:46:27.238Z,9.00
2022-10-12T04:49:24.163Z,9.40
2022-10-12T04:52:21.182Z,9.40
2022-10-12T04:55:17.962Z,9.00
2022-10-12T04:58:15.574Z,9.00
2022-10-12T05:01:12.727Z,9.00
2022-10-12T05:04:10.045Z,10.20
2022-10-12T05:07:07.505Z,9.20
2022-10-12T05:10:04.825Z,8.00
2022-10-12T05:13:02.468Z,8.00
2022-10-12T05:15:59.302Z,9.20
2022-10-12T05:18:56.148Z,12.40
2022-10-12T05:21:54.724Z,12.00
2022-10-12T05:24:53.916Z,10.80
2022-10-12T05:27:51.394Z,12.40
2022-10-12T05:30:51.963Z,10.00
2022-10-12T05:33:49.129Z,6.00
2022-10-12T05:36:46.691Z,8.40
2022-10-12T05:39:43.485Z,7.20
2022-10-12T05:42:40.657Z,8.00
2022-10-12T05:45:38.213Z,7.20
2022-10-12T05:48:34.985Z,8.00
2022-10-12T05:51:32.452Z,11.00
2022-10-12T05:54:29.130Z,5.20
2022-10-12T05:57:26.322Z,11.80
2022-10-12T06:00:22.973Z,9.00
2022-10-12T06:03:24.065Z,8.00
2022-10-12T06:06:23.575Z,8.00
2022-10-12T06:09:20.490Z,8.40
2022-10-12T06:12:17.240Z,8.60
2022-10-12T06:15:14.178Z,9.00
2022-10-12T06:18:11.566Z,8.20
2022-10-12T06:21:31.918Z,9.00
2022-10-12T06:24:25.297Z,9.60
2022-10-12T06:27:22.296Z,8.00
2022-10-12T06:30:19.247Z,9.00
2022-10-12T06:33:16.089Z,8.00
2022-10-12T06:36:13.623Z,9.00
2022-10-12T06:39:10.704Z,10.20
2022-10-12T06:42:08.799Z,10.80
2022-10-12T06:45:11.072Z,13.00
2022-10-12T06:48:08.453Z,13.00
2022-10-12T06:51:05.770Z,16.00
2022-10-12T06:54:03.405Z,16.00
2022-10-12T06:57:00.638Z,15.60
2022-10-12T06:59:57.401Z,0.00
2022-10-12T07:02:54.422Z,17.00
2022-10-12T07:05:51.287Z,13.20
2022-10-12T07:08:50.227Z,18.20
2022-10-12T07:11:47.636Z,13.80
2022-10-12T07:14:44.795Z,10.40
2022-10-12T07:17:42.254Z,12.00
2022-10-12T07:20:41.004Z,9.00
2022-10-12T07:23:42.481Z,13.00
2022-10-12T07:26:40.989Z,9.00
2022-10-12T07:29:38.738Z,11.20
2022-10-12T07:32:35.306Z,13.00
2022-10-12T07:35:32.153Z,13.00
2022-10-12T07:38:29.643Z,12.20
2022-10-12T07:41:27.544Z,12.40
2022-10-12T07:44:24.727Z,12.40
2022-10-12T07:47:21.809Z,11.20
2022-10-12T07:50:18.123Z,9.00
2022-10-12T07:53:15.670Z,14.00
2022-10-12T07:56:15.362Z,11.80
2022-10-12T07:59:12.298Z,9.00
2022-10-12T08:02:10.992Z,12.80
2022-10-12T08:05:08.682Z,13.20
2022-10-12T08:08:05.658Z,10.00
2022-10-12T08:11:02.560Z,13.20
2022-10-12T08:13:59.336Z,10.40
2022-10-12T08:16:56.589Z,10.20
2022-10-12T08:19:53.470Z,13.60
2022-10-12T08:22:50.561Z,10.20
2022-10-12T08:25:54.294Z,10.40
2022-10-12T08:28:51.405Z,12.40
2022-10-12T08:31:51.601Z,13.00
2022-10-12T08:34:48.331Z,13.60
2022-10-12T08:37:45.885Z,13.00
2022-10-12T08:40:56.664Z,11.00
2022-10-12T08:44:17.813Z,14.00
2022-10-12T08:47:25.657Z,12.20
2022-10-12T08:50:37.878Z,14.00
2022-10-12T08:53:40.175Z,13.20
2022-10-12T08:56:40.286Z,13.80
2022-10-12T08:59:37.320Z,13.00
2022-10-12T09:02:49.929Z,13.00
2022-10-12T09:06:11.873Z,11.00
2022-10-12T09:09:43.230Z,10.00
2022-10-12T09:12:55.501Z,10.80
2022-10-12T09:16:21.310Z,10.40
2022-10-12T09:19:37.446Z,10.00
2022-10-12T09:22:35.101Z,11.20
2022-10-12T09:25:32.582Z,8.20
2022-10-12T09:28:38.177Z,10.20
2022-10-12T09:32:00.459Z,8.00
2022-10-12T09:34:57.864Z,10.00
2022-10-12T09:37:54.566Z,7.00
2022-10-12T09:40:51.402Z,7.00
2022-10-12T09:43:53.853Z,8.40
2022-10-12T09:47:01.579Z,7.60
2022-10-12T09:50:02.972Z,6.80
2022-10-12T09:53:00.372Z,6.60
2022-10-12T09:56:09.702Z,8.80
2022-10-12T09:59:44.124Z,5.60
2022-10-12T10:02:48.694Z,4.80
2022-10-12T10:05:45.413Z,6.00
2022-10-12T10:08:44.406Z,3.80
2022-10-12T10:11:41.234Z,5.60
2022-10-12T10:14:38.529Z,5.40
2022-10-12T10:17:35.505Z,5.20
2022-10-12T10:20:34.440Z,4.00
2022-10-12T10:23:35.222Z,3.40
2022-10-12T10:26:58.188Z,3.80
2022-10-12T10:30:04.836Z,2.00
2022-10-12T10:33:17.357Z,1.00
2022-10-12T10:36:22.368Z,2.60
2022-10-12T10:39:24.990Z,2.00
2022-10-12T10:42:25.159Z,1.00
2022-10-12T10:45:31.829Z,2.20
2022-10-12T10:48:30.349Z,1.00
2022-10-12T10:51:40.930Z,2.20
2022-10-12T10:54:38.828Z,2.00
2022-10-12T10:57:35.759Z,2.00
2022-10-12T11:00:39.006Z,2.00
2022-10-12T11:04:11.682Z,1.00
2022-10-12T11:07:19.870Z,1.00
2022-10-12T11:10:42.140Z,2.20
2022-10-12T11:13:52.631Z,4.20
2022-10-12T11:17:02.162Z,3.00
2022-10-12T11:20:29.275Z,4.20
2022-10-12T11:23:47.101Z,15.00
2022-10-12T11:27:05.991Z,0.00
2022-10-12T11:30:11.384Z,10.50
2022-10-12T11:33:35.133Z,8.00
2022-10-12T11:36:33.711Z,0.60
2022-10-12T11:39:39.177Z,2.00
2022-10-12T11:42:43.418Z,9.00
2022-10-12T11:45:43.199Z,6.00
2022-10-12T11:48:56.547Z,4.25
2022-10-12T11:51:55.633Z,1.60
2022-10-12T11:55:27.709Z,2.25
2022-10-12T11:58:42.376Z,4.00
2022-10-12T12:01:45.750Z,2.40
2022-10-12T12:04:44.305Z,4.75
2022-10-12T12:07:50.853Z,2.00
2022-10-12T12:11:03.000Z,2.20
2022-10-12T12:14:21.351Z,2.80
2022-10-12T12:17:18.828Z,3.80
2022-10-12T12:20:44.477Z,2.60
2022-10-12T12:23:55.023Z,4.00
2022-10-12T12:26:52.513Z,7.50
2022-10-12T12:29:52.699Z,1.00
2022-10-12T12:33:00.816Z,1.20
2022-10-12T12:36:08.229Z,3.00
2022-10-12T12:39:07.074Z,3.20
2022-10-12T12:42:08.515Z,3.75
2022-10-12T12:45:38.937Z,7.40
2022-10-12T12:48:41.807Z,4.40
2022-10-12T12:51:40.819Z,3.00
2022-10-12T12:54:41.849Z,5.75
2022-10-12T12:57:45.194Z,3.80
2022-10-12T13:01:01.181Z,23.50
2022-10-12T13:04:07.439Z,18.75
2022-10-12T13:07:33.149Z,3.60
2022-10-12T13:10:39.943Z,2.00
2022-10-12T13:13:41.898Z,3.40
2022-10-12T13:20:17.680Z,2.20
2022-10-12T13:23:17.373Z,6.00
2022-10-12T13:26:18.062Z,21.75
2022-10-12T13:29:49.409Z,10.75
2022-10-12T13:33:13.508Z,8.50
2022-10-12T13:36:30.784Z,25.00
2022-10-12T13:39:27.779Z,24.25
2022-10-12T13:42:30.912Z,15.50
2022-10-12T13:45:28.485Z,18.50
2022-10-12T13:48:53.748Z,22.00
2022-10-12T13:51:43.962Z,8.25
2022-10-12T13:54:44.374Z,27.75
2022-10-12T13:57:42.891Z,22.00
2022-10-12T14:00:39.573Z,10.00
2022-10-12T14:03:41.822Z,19.25
2022-10-12T14:06:38.467Z,7.75
2022-10-12T14:09:44.505Z,25.50
2022-10-12T14:12:42.112Z,20.25
2022-10-12T14:15:39.907Z,13.00
2022-10-12T14:18:42.875Z,22.25
2022-10-12T14:21:39.751Z,26.00
2022-10-12T14:24:36.682Z,26.00
2022-10-12T14:27:34.111Z,21.25
2022-10-12T14:30:36.763Z,23.00
2022-10-12T14:33:33.866Z,28.50
2022-10-12T14:36:30.772Z,4.67
2022-10-12T14:39:27.694Z,15.75
2022-10-12T14:42:31.926Z,22.50
2022-10-12T14:45:28.980Z,16.00
2022-10-12T14:48:25.930Z,17.75
2022-10-12T14:51:22.724Z,19.25
2022-10-12T14:54:19.822Z,19.75
2022-10-12T14:57:17.151Z,24.00
2022-10-12T15:00:23.913Z,25.25
2022-10-12T15:03:20.741Z,27.25
2022-10-12T15:06:17.809Z,20.50
2022-10-12T15:09:14.725Z,25.50
2022-10-12T15:12:13.327Z,27.50
2022-10-12T15:15:31.490Z,20.75
2022-10-12T15:18:28.883Z,27.50
2022-10-12T15:21:25.801Z,10.67
2022-10-12T15:24:22.861Z,17.25
2022-10-12T15:27:19.869Z,25.25
2022-10-12T15:30:17.464Z,16.75
2022-10-12T15:33:14.764Z,18.75
2022-10-12T15:36:11.673Z,18.00
2022-10-12T15:39:09.054Z,21.00
2022-10-12T15:42:06.103Z,19.50
2022-10-12T15:45:03.001Z,22.25
2022-10-12T15:48:00.183Z,16.75
2022-10-12T15:50:58.114Z,23.25
2022-10-12T15:53:55.568Z,13.00
2022-10-12T15:56:52.825Z,15.50
2022-10-12T15:59:52.409Z,23.50
2022-10-12T16:02:50.123Z,23.25
2022-10-12T16:05:48.039Z,17.25
2022-10-12T16:08:44.818Z,4.00
2022-10-12T16:11:42.003Z,3.00
2022-10-12T16:14:38.796Z,7.40
2022-10-12T16:17:35.631Z,4.20
2022-10-12T16:20:33.310Z,7.40
2022-10-12T16:23:32.973Z,1.20
2022-10-12T16:26:29.920Z,4.60
2022-10-12T16:29:26.551Z,2.60
2022-10-12T16:32:24.191Z,0.00
2022-10-12T16:35:20.783Z,0.60
2022-10-12T16:38:20.119Z,1.00
2022-10-12T16:41:17.171Z,0.60
2022-10-12T16:44:13.840Z,0.00
2022-10-12T16:47:11.305Z,2.00
2022-10-12T16:50:09.091Z,1.20
2022-10-12T16:53:06.177Z,1.00
2022-10-12T16:56:03.294Z,2.00
2022-10-12T16:59:01.171Z,2.20
2022-10-12T17:01:59.426Z,2.00
2022-10-12T17:04:56.760Z,2.00
2022-10-12T17:07:53.865Z,2.00
2022-10-12T17:10:51.099Z,1.00
2022-10-12T17:13:49.301Z,3.00
2022-10-12T17:16:49.986Z,2.20
2022-10-12T17:19:47.277Z,2.00
2022-10-12T17:22:44.821Z,3.00
2022-10-12T17:25:43.971Z,2.00
2022-10-12T17:28:41.261Z,2.80
2022-10-12T17:31:39.312Z,2.00
2022-10-12T17:34:41.468Z,2.00
2022-10-12T17:37:39.110Z,2.00
2022-10-12T17:40:39.841Z,1.00
2022-10-12T17:43:36.926Z,2.00
2022-10-12T17:46:34.116Z,4.60
2022-10-12T17:49:31.011Z,5.20
2022-10-12T17:52:28.096Z,9.00
2022-10-12T17:55:43.866Z,9.20
2022-10-12T17:58:43.575Z,12.40
2022-10-12T18:01:40.953Z,17.20
2022-10-12T18:04:37.863Z,12.20
2022-10-12T18:07:36.059Z,9.60
2022-10-12T18:10:32.681Z,14.00
2022-10-12T18:13:30.332Z,10.60
2022-10-12T18:16:29.835Z,16.60
2022-10-12T18:19:27.375Z,14.00
2022-10-12T18:22:25.267Z,7.40
2022-10-12T18:25:22.391Z,6.60
2022-10-12T18:28:20.167Z,9.20
2022-10-12T18:31:20.664Z,12.60
2022-10-12T18:34:18.111Z,15.60
2022-10-12T18:37:15.151Z,13.00
2022-10-12T18:40:12.261Z,9.80
2022-10-12T18:43:08.822Z,8.00
2022-10-12T18:46:10.716Z,7.00
2022-10-12T18:49:08.437Z,9.40
2022-10-12T18:52:06.046Z,8.60
2022-10-12T18:55:03.003Z,8.80
2022-10-12T18:57:59.914Z,11.60
2022-10-12T19:00:57.019Z,9.20
2022-10-12T19:03:55.048Z,9.60
2022-10-12T19:06:56.910Z,12.00
2022-10-12T19:09:55.321Z,9.00
2022-10-12T19:12:51.860Z,9.00
2022-10-12T19:15:48.860Z,8.00
2022-10-12T19:18:45.837Z,6.00
2022-10-12T19:21:45.229Z,4.00
2022-10-12T19:24:42.158Z,4.40
2022-10-12T19:27:38.797Z,4.80
2022-10-12T19:30:39.434Z,8.20
2022-10-12T19:33:37.162Z,10.20
2022-10-12T19:36:34.409Z,12.60
2022-10-12T19:39:33.091Z,12.00
2022-10-12T19:42:29.639Z,12.60
2022-10-12T19:45:26.980Z,7.40
2022-10-12T19:48:24.077Z,9.00
2022-10-12T19:51:21.747Z,9.60
2022-10-12T19:54:19.718Z,12.00
2022-10-12T19:57:17.068Z,12.00
2022-10-12T20:00:14.795Z,11.20
2022-10-12T20:03:14.278Z,10.00
2022-10-12T20:06:11.104Z,8.60
2022-10-12T20:09:08.309Z,11.00
2022-10-12T20:12:06.177Z,10.00
2022-10-12T20:15:02.757Z,11.00
2022-10-12T20:18:00.184Z,10.00
2022-10-12T20:20:57.322Z,10.00
2022-10-12T20:23:53.956Z,12.00
2022-10-12T20:26:50.886Z,12.00
2022-10-12T20:29:48.020Z,8.00
2022-10-12T20:32:44.967Z,9.20
2022-10-12T20:35:48.552Z,8.00
2022-10-12T20:38:46.105Z,8.00
2022-10-12T20:41:43.024Z,11.00
2022-10-12T20:44:39.981Z,9.00
2022-10-12T20:47:36.780Z,9.00
2022-10-12T20:50:34.227Z,8.60
2022-10-12T20:53:31.537Z,9.20
2022-10-12T20:56:29.764Z,10.20
2022-10-12T20:59:26.948Z,10.20
2022-10-12T21:02:23.957Z,11.80
2022-10-12T21:05:20.987Z,10.40
2022-10-12T21:08:17.905Z,8.00
2022-10-12T21:11:15.177Z,11.00
2022-10-12T21:14:13.051Z,13.00
2022-10-12T21:17:10.277Z,11.20
2022-10-12T21:20:07.685Z,9.60
2022-10-12T21:23:05.265Z,11.40
2022-10-12T21:26:17.724Z,10.00
2022-10-12T21:29:15.078Z,10.00
2022-10-12T21:32:11.829Z,7.80
2022-10-12T21:35:09.190Z,12.40
2022-10-12T21:38:05.913Z,10.80
2022-10-12T21:41:03.391Z,11.20
2022-10-12T21:43:59.971Z,10.40
2022-10-12T21:46:58.284Z,13.20
2022-10-12T21:49:55.059Z,10.00
2022-10-12T21:52:55.470Z,12.00
2022-10-12T21:55:55.347Z,11.00
2022-10-12T21:58:52.544Z,12.00
2022-10-12T22:01:49.931Z,11.60
2022-10-12T22:04:47.099Z,11.00
2022-10-12T22:07:44.270Z,12.40
2022-10-12T22:10:43.163Z,13.20
2022-10-12T22:13:40.226Z,13.20
2022-10-12T22:16:37.066Z,12.40
2022-10-12T22:19:34.124Z,14.40
2022-10-12T22:22:31.322Z,14.00
2022-10-12T22:25:28.223Z,14.20
2022-10-12T22:28:24.964Z,15.00
2022-10-12T22:31:22.920Z,16.60
2022-10-12T22:34:20.460Z,13.00
2022-10-12T22:37:17.239Z,11.40
2022-10-12T22:40:14.325Z,12.00
2022-10-12T22:43:11.240Z,15.00
2022-10-12T22:46:08.150Z,12.20
2022-10-12T22:49:05.337Z,11.40
2022-10-12T22:52:02.359Z,11.40
2022-10-12T22:55:00.240Z,12.60
2022-10-12T22:57:57.124Z,12.00
2022-10-12T23:01:02.965Z,11.00
2022-10-12T23:04:02.591Z,10.80
2022-10-12T23:07:00.014Z,12.80
2022-10-12T23:09:57.309Z,10.00
2022-10-12T23:12:54.315Z,8.80
2022-10-12T23:15:51.160Z,9.80
2022-10-12T23:18:48.118Z,9.80
2022-10-12T23:21:45.018Z,9.00
2022-10-12T23:24:42.280Z,11.20
2022-10-12T23:27:39.236Z,14.40
2022-10-12T23:30:37.725Z,14.60
2022-10-12T23:33:35.382Z,10.40
2022-10-12T23:36:32.459Z,11.00
2022-10-12T23:39:29.383Z,12.60
2022-10-12T23:42:26.351Z,13.00
2022-10-12T23:45:24.397Z,14.00
2022-10-12T23:48:21.629Z,11.00
2022-10-12T23:51:19.444Z,14.60
2022-10-12T23:54:15.840Z,13.20
2022-10-12T23:57:34.342Z,13.60
